FALF weather

Falwell Freeway
Possum Grape, Arkansas, United States

Public forecast

Using degrees Fahrenheit for public forecast. Weather courtesy of forecast.io.

Closest aviation weather report (METAR) to Falwell Freeway

Closest report is Newport Regional Airport, 13.8 nm (25.5 km) NE. Retrieved UTC (0 seconds ago):

Closest aviation forecast (TAF) to Falwell Freeway

Closest forecast is Jonesboro Municipal Airport, 41.3 nm (76.5 km) ENE. Retrieved 2020/01/26 12:33 UTC (2 hours ago):

TAF KJBR 261130Z 2612/2712 21003KT P6SM OVC070 FM261800 22009KT P6SM OVC010 FM270500 25005KT P6SM OVC004 FM270800 29005KT P6SM OVC009 FM271000 31005KT P6SM SCT035